sensor_id;sensor_type;location;lat;lon;timestamp;pressure;altitude;pressure_sealevel;temperature;humidity
10366;BME280;5229;41.820;23.490;2023-02-13T00:01:14;91327.41;;;2.69;48.93
10366;BME280;5229;41.820;23.490;2023-02-13T00:03:41;91325.19;;;2.72;49.59
10366;BME280;5229;41.820;23.490;2023-02-13T00:06:08;91324.50;;;2.77;49.48
10366;BME280;5229;41.820;23.490;2023-02-13T00:08:35;91328.63;;;2.78;49.36
10366;BME280;5229;41.820;23.490;2023-02-13T00:11:02;91328.16;;;2.81;49.33
10366;BME280;5229;41.820;23.490;2023-02-13T00:13:28;91333.06;;;2.82;48.67
10366;BME280;5229;41.820;23.490;2023-02-13T00:15:58;91340.28;;;2.85;48.65
10366;BME280;5229;41.820;23.490;2023-02-13T00:18:26;91330.94;;;2.91;49.15
10366;BME280;5229;41.820;23.490;2023-02-13T00:20:57;91338.53;;;2.97;48.51
10366;BME280;5229;41.820;23.490;2023-02-13T00:23:24;91341.97;;;3.03;48.75
10366;BME280;5229;41.820;23.490;2023-02-13T00:25:50;91340.28;;;3.08;48.83
10366;BME280;5229;41.820;23.490;2023-02-13T00:28:17;91334.72;;;3.12;48.20
10366;BME280;5229;41.820;23.490;2023-02-13T00:30:44;91335.03;;;3.15;48.23
10366;BME280;5229;41.820;23.490;2023-02-13T00:33:12;91334.88;;;3.22;48.75
10366;BME280;5229;41.820;23.490;2023-02-13T00:35:39;91338.09;;;3.29;48.29
10366;BME280;5229;41.820;23.490;2023-02-13T00:38:06;91328.25;;;3.37;48.18
10366;BME280;5229;41.820;23.490;2023-02-13T00:40:33;91329.69;;;3.45;48.13
10366;BME280;5229;41.820;23.490;2023-02-13T00:42:59;91329.78;;;3.50;47.51
10366;BME280;5229;41.820;23.490;2023-02-13T00:45:26;91329.91;;;3.55;47.92
10366;BME280;5229;41.820;23.490;2023-02-13T00:47:53;91335.31;;;3.58;47.90
10366;BME280;5229;41.820;23.490;2023-02-13T00:50:21;91329.75;;;3.61;47.61
10366;BME280;5229;41.820;23.490;2023-02-13T00:52:48;91340.78;;;3.62;47.99
10366;BME280;5229;41.820;23.490;2023-02-13T00:55:15;91339.22;;;3.61;48.02
10366;BME280;5229;41.820;23.490;2023-02-13T00:57:42;91331.78;;;3.59;48.03
10366;BME280;5229;41.820;23.490;2023-02-13T01:00:10;91336.56;;;3.56;48.48
10366;BME280;5229;41.820;23.490;2023-02-13T01:02:37;91327.00;;;3.51;47.82
10366;BME280;5229;41.820;23.490;2023-02-13T01:05:04;91327.00;;;3.51;48.28
10366;BME280;5229;41.820;23.490;2023-02-13T01:07:32;91323.97;;;3.54;47.95
10366;BME280;5229;41.820;23.490;2023-02-13T01:09:59;91321.19;;;3.56;48.13
10366;BME280;5229;41.820;23.490;2023-02-13T01:12:26;91314.50;;;3.55;48.28
10366;BME280;5229;41.820;23.490;2023-02-13T01:14:52;91320.16;;;3.57;47.61
10366;BME280;5229;41.820;23.490;2023-02-13T01:17:20;91319.19;;;3.58;47.85
10366;BME280;5229;41.820;23.490;2023-02-13T01:19:47;91310.47;;;3.59;48.28
10366;BME280;5229;41.820;23.490;2023-02-13T01:22:14;91321.53;;;3.59;48.37
10366;BME280;5229;41.820;23.490;2023-02-13T01:24:42;91321.03;;;3.62;47.61
10366;BME280;5229;41.820;23.490;2023-02-13T01:27:09;91314.94;;;3.63;47.53
10366;BME280;5229;41.820;23.490;2023-02-13T01:29:36;91328.03;;;3.67;47.94
10366;BME280;5229;41.820;23.490;2023-02-13T01:32:03;91326.81;;;3.69;48.35
10366;BME280;5229;41.820;23.490;2023-02-13T01:34:30;91331.19;;;3.69;47.47
10366;BME280;5229;41.820;23.490;2023-02-13T01:36:57;91322.69;;;3.68;48.21
10366;BME280;5229;41.820;23.490;2023-02-13T01:39:24;91329.84;;;3.66;47.96
10366;BME280;5229;41.820;23.490;2023-02-13T01:41:52;91328.28;;;3.65;48.03
10366;BME280;5229;41.820;23.490;2023-02-13T01:44:50;91339.53;;;3.64;48.45
10366;BME280;5229;41.820;23.490;2023-02-13T01:47:24;91330.84;;;3.65;48.46
10366;BME280;5229;41.820;23.490;2023-02-13T01:50:01;91330.09;;;3.65;48.66
10366;BME280;5229;41.820;23.490;2023-02-13T01:52:29;91331.63;;;3.66;48.28
10366;BME280;5229;41.820;23.490;2023-02-13T01:54:56;91334.97;;;3.66;48.13
10366;BME280;5229;41.820;23.490;2023-02-13T01:57:26;91330.31;;;3.63;48.75
10366;BME280;5229;41.820;23.490;2023-02-13T01:59:57;91325.63;;;3.60;48.25
10366;BME280;5229;41.820;23.490;2023-02-13T02:02:26;91325.53;;;3.55;48.36
10366;BME280;5229;41.820;23.490;2023-02-13T02:04:54;91332.34;;;3.50;49.03
10366;BME280;5229;41.820;23.490;2023-02-13T02:07:25;91326.56;;;3.43;48.89
10366;BME280;5229;41.820;23.490;2023-02-13T02:09:57;91320.03;;;3.35;49.50
10366;BME280;5229;41.820;23.490;2023-02-13T02:12:30;91326.53;;;3.26;48.91
10366;BME280;5229;41.820;23.490;2023-02-13T02:15:00;91326.78;;;3.13;49.31
10366;BME280;5229;41.820;23.490;2023-02-13T02:17:29;91336.84;;;3.03;49.86
10366;BME280;5229;41.820;23.490;2023-02-13T02:20:05;91338.41;;;2.92;50.11
10366;BME280;5229;41.820;23.490;2023-02-13T02:23:13;91344.00;;;2.78;50.31
10366;BME280;5229;41.820;23.490;2023-02-13T02:26:06;91344.22;;;2.65;50.09
10366;BME280;5229;41.820;23.490;2023-02-13T02:29:18;91349.09;;;2.55;49.97
10366;BME280;5229;41.820;23.490;2023-02-13T02:32:15;91354.00;;;2.45;49.85
10366;BME280;5229;41.820;23.490;2023-02-13T02:34:53;91342.78;;;2.34;50.24
10366;BME280;5229;41.820;23.490;2023-02-13T02:37:32;91351.00;;;2.25;50.70
10366;BME280;5229;41.820;23.490;2023-02-13T02:40:10;91350.09;;;2.19;50.11
10366;BME280;5229;41.820;23.490;2023-02-13T02:42:54;91342.28;;;2.14;50.33
10366;BME280;5229;41.820;23.490;2023-02-13T02:45:27;91346.94;;;2.06;50.24
10366;BME280;5229;41.820;23.490;2023-02-13T02:47:59;91355.47;;;2.00;50.54
10366;BME280;5229;41.820;23.490;2023-02-13T02:50:50;91357.94;;;1.95;50.50
10366;BME280;5229;41.820;23.490;2023-02-13T02:53:28;91358.78;;;1.89;50.54
10366;BME280;5229;41.820;23.490;2023-02-13T02:56:03;91361.81;;;1.86;50.64
10366;BME280;5229;41.820;23.490;2023-02-13T02:58:36;91362.31;;;1.76;50.92
10366;BME280;5229;41.820;23.490;2023-02-13T03:01:23;91367.75;;;1.68;51.06
10366;BME280;5229;41.820;23.490;2023-02-13T03:04:16;91370.94;;;1.64;51.04
10366;BME280;5229;41.820;23.490;2023-02-13T03:07:03;91371.38;;;1.61;51.03
10366;BME280;5229;41.820;23.490;2023-02-13T03:09:36;91377.38;;;1.55;51.14
10366;BME280;5229;41.820;23.490;2023-02-13T03:12:23;91383.34;;;1.49;51.48
10366;BME280;5229;41.820;23.490;2023-02-13T03:15:12;91380.44;;;1.45;51.22
10366;BME280;5229;41.820;23.490;2023-02-13T03:17:39;91390.28;;;1.42;51.19
10366;BME280;5229;41.820;23.490;2023-02-13T03:20:33;91394.50;;;1.36;51.07
10366;BME280;5229;41.820;23.490;2023-02-13T03:23:29;91390.22;;;1.30;51.44
10366;BME280;5229;41.820;23.490;2023-02-13T03:26:27;91387.34;;;1.27;51.38
10366;BME280;5229;41.820;23.490;2023-02-13T03:29:06;91389.75;;;1.22;51.35
10366;BME280;5229;41.820;23.490;2023-02-13T03:31:57;91396.94;;;1.13;51.35
10366;BME280;5229;41.820;23.490;2023-02-13T03:34:31;91400.31;;;1.07;51.63
10366;BME280;5229;41.820;23.490;2023-02-13T03:37:26;91389.03;;;0.97;51.49
10366;BME280;5229;41.820;23.490;2023-02-13T03:40:15;91396.69;;;0.97;51.68
10366;BME280;5229;41.820;23.490;2023-02-13T03:42:46;91392.78;;;0.94;51.69
10366;BME280;5229;41.820;23.490;2023-02-13T03:45:17;91385.56;;;0.91;51.59
10366;BME280;5229;41.820;23.490;2023-02-13T03:48:21;91384.44;;;0.87;51.99
10366;BME280;5229;41.820;23.490;2023-02-13T03:51:07;91388.75;;;0.87;51.43
10366;BME280;5229;41.820;23.490;2023-02-13T03:53:39;91387.41;;;0.84;51.83
10366;BME280;5229;41.820;23.490;2023-02-13T03:56:11;91391.16;;;0.82;52.03
10366;BME280;5229;41.820;23.490;2023-02-13T03:58:57;91382.94;;;0.80;51.71
10366;BME280;5229;41.820;23.490;2023-02-13T04:01:40;91383.78;;;0.74;51.77
10366;BME280;5229;41.820;23.490;2023-02-13T04:04:13;91378.31;;;0.70;51.84
10366;BME280;5229;41.820;23.490;2023-02-13T04:06:46;91384.63;;;0.68;51.65
10366;BME280;5229;41.820;23.490;2023-02-13T04:09:16;91389.38;;;0.64;51.85
10366;BME280;5229;41.820;23.490;2023-02-13T04:11:49;91386.25;;;0.62;52.03
10366;BME280;5229;41.820;23.490;2023-02-13T04:14:21;91387.25;;;0.61;52.20
10366;BME280;5229;41.820;23.490;2023-02-13T04:16:52;91396.44;;;0.62;52.28
10366;BME280;5229;41.820;23.490;2023-02-13T04:19:24;91403.53;;;0.60;51.75
10366;BME280;5229;41.820;23.490;2023-02-13T04:21:55;91399.41;;;0.59;52.11
10366;BME280;5229;41.820;23.490;2023-02-13T04:24:25;91407.13;;;0.53;51.77
10366;BME280;5229;41.820;23.490;2023-02-13T04:26:52;91416.97;;;0.49;52.12
10366;BME280;5229;41.820;23.490;2023-02-13T04:29:20;91411.50;;;0.46;52.14
10366;BME280;5229;41.820;23.490;2023-02-13T04:31:47;91409.38;;;0.43;52.24
10366;BME280;5229;41.820;23.490;2023-02-13T04:34:14;91410.19;;;0.37;52.29
10366;BME280;5229;41.820;23.490;2023-02-13T04:36:41;91416.50;;;0.34;52.82
10366;BME280;5229;41.820;23.490;2023-02-13T04:39:08;91410.47;;;0.29;52.44
10366;BME280;5229;41.820;23.490;2023-02-13T04:41:37;91425.41;;;0.25;52.40
10366;BME280;5229;41.820;23.490;2023-02-13T04:44:04;91428.38;;;0.22;52.69
10366;BME280;5229;41.820;23.490;2023-02-13T04:46:31;91430.75;;;0.17;52.58
10366;BME280;5229;41.820;23.490;2023-02-13T04:48:57;91443.75;;;0.09;52.20
10366;BME280;5229;41.820;23.490;2023-02-13T04:51:24;91443.22;;;0.00;52.79
10366;BME280;5229;41.820;23.490;2023-02-13T04:53:51;91437.75;;;-0.03;52.49
10366;BME280;5229;41.820;23.490;2023-02-13T04:56:18;91446.00;;;-0.08;52.96
10366;BME280;5229;41.820;23.490;2023-02-13T04:58:46;91440.72;;;-0.13;53.21
10366;BME280;5229;41.820;23.490;2023-02-13T05:01:15;91438.22;;;-0.19;53.65
10366;BME280;5229;41.820;23.490;2023-02-13T05:03:42;91438.47;;;-0.27;53.10
10366;BME280;5229;41.820;23.490;2023-02-13T05:06:09;91435.75;;;-0.32;53.57
10366;BME280;5229;41.820;23.490;2023-02-13T05:08:35;91430.09;;;-0.34;53.37
10366;BME280;5229;41.820;23.490;2023-02-13T05:11:02;91433.03;;;-0.37;53.85
10366;BME280;5229;41.820;23.490;2023-02-13T05:13:29;91436.78;;;-0.40;53.51
10366;BME280;5229;41.820;23.490;2023-02-13T05:15:57;91438.13;;;-0.37;53.86
10366;BME280;5229;41.820;23.490;2023-02-13T05:18:24;91438.13;;;-0.37;53.53
10366;BME280;5229;41.820;23.490;2023-02-13T05:20:51;91440.88;;;-0.39;53.57
10366;BME280;5229;41.820;23.490;2023-02-13T05:23:32;91438.75;;;-0.42;53.77
10366;BME280;5229;41.820;23.490;2023-02-13T05:25:59;91431.28;;;-0.43;53.85
10366;BME280;5229;41.820;23.490;2023-02-13T05:28:25;91429.13;;;-0.40;53.71
10366;BME280;5229;41.820;23.490;2023-02-13T05:31:11;91437.53;;;-0.33;53.24
10366;BME280;5229;41.820;23.490;2023-02-13T05:33:38;91445.91;;;-0.26;53.43
10366;BME280;5229;41.820;23.490;2023-02-13T05:36:06;91442.38;;;-0.25;53.37
10366;BME280;5229;41.820;23.490;2023-02-13T05:38:33;91451.03;;;-0.26;53.36
10366;BME280;5229;41.820;23.490;2023-02-13T05:41:00;91447.47;;;-0.25;53.06
10366;BME280;5229;41.820;23.490;2023-02-13T05:43:27;91448.28;;;-0.24;53.12
10366;BME280;5229;41.820;23.490;2023-02-13T05:46:01;91456.28;;;-0.21;53.33
10366;BME280;5229;41.820;23.490;2023-02-13T05:48:29;91449.56;;;-0.15;53.37
10366;BME280;5229;41.820;23.490;2023-02-13T05:50:56;91450.72;;;-0.11;53.05
10366;BME280;5229;41.820;23.490;2023-02-13T05:53:23;91455.81;;;-0.11;53.34
10366;BME280;5229;41.820;23.490;2023-02-13T05:55:50;91449.97;;;-0.12;53.12
10366;BME280;5229;41.820;23.490;2023-02-13T05:58:18;91457.03;;;-0.14;53.28
10366;BME280;5229;41.820;23.490;2023-02-13T06:00:45;91453.91;;;-0.16;53.33
10366;BME280;5229;41.820;23.490;2023-02-13T06:03:12;91456.47;;;-0.16;53.44
10366;BME280;5229;41.820;23.490;2023-02-13T06:05:40;91461.72;;;-0.11;53.40
10366;BME280;5229;41.820;23.490;2023-02-13T06:08:07;91459.75;;;-0.09;53.29
10366;BME280;5229;41.820;23.490;2023-02-13T06:10:34;91464.84;;;-0.09;53.38
10366;BME280;5229;41.820;23.490;2023-02-13T06:13:00;91455.41;;;-0.08;53.46
10366;BME280;5229;41.820;23.490;2023-02-13T06:15:27;91457.00;;;-0.07;53.21
10366;BME280;5229;41.820;23.490;2023-02-13T06:17:54;91455.41;;;-0.02;53.23
10366;BME280;5229;41.820;23.490;2023-02-13T06:20:21;91466.28;;;0.12;53.34
10366;BME280;5229;41.820;23.490;2023-02-13T06:22:50;91464.06;;;0.53;53.20
10366;BME280;5229;41.820;23.490;2023-02-13T06:25:18;91458.56;;;1.35;52.37
10366;BME280;5229;41.820;23.490;2023-02-13T06:27:44;91472.28;;;2.47;50.40
10366;BME280;5229;41.820;23.490;2023-02-13T06:30:13;91467.75;;;3.64;48.67
10366;BME280;5229;41.820;23.490;2023-02-13T06:32:40;91460.81;;;4.60;46.95
10366;BME280;5229;41.820;23.490;2023-02-13T06:35:07;91469.00;;;5.23;46.17
10366;BME280;5229;41.820;23.490;2023-02-13T06:37:34;91469.84;;;5.83;45.43
10366;BME280;5229;41.820;23.490;2023-02-13T06:40:03;91468.59;;;6.56;44.42
10366;BME280;5229;41.820;23.490;2023-02-13T06:42:30;91476.75;;;7.37;42.69
10366;BME280;5229;41.820;23.490;2023-02-13T06:44:57;91477.78;;;8.24;41.55
10366;BME280;5229;41.820;23.490;2023-02-13T06:47:24;91481.88;;;9.27;40.29
10366;BME280;5229;41.820;23.490;2023-02-13T06:49:51;91477.44;;;10.61;38.92
10366;BME280;5229;41.820;23.490;2023-02-13T06:52:18;91485.28;;;12.01;36.80
10366;BME280;5229;41.820;23.490;2023-02-13T06:54:45;91492.22;;;13.36;35.10
10366;BME280;5229;41.820;23.490;2023-02-13T06:57:14;91484.69;;;14.58;33.40
10366;BME280;5229;41.820;23.490;2023-02-13T06:59:41;91486.28;;;15.57;32.05
10366;BME280;5229;41.820;23.490;2023-02-13T07:02:08;91484.88;;;16.26;31.10
10366;BME280;5229;41.820;23.490;2023-02-13T07:04:36;91483.19;;;16.52;30.67
10366;BME280;5229;41.820;23.490;2023-02-13T07:07:02;91482.69;;;16.89;30.17
10366;BME280;5229;41.820;23.490;2023-02-13T07:09:30;91482.97;;;17.52;29.29
10366;BME280;5229;41.820;23.490;2023-02-13T07:11:57;91491.88;;;18.11;28.61
10366;BME280;5229;41.820;23.490;2023-02-13T07:14:25;91487.34;;;18.83;27.53
10366;BME280;5229;41.820;23.490;2023-02-13T07:16:52;91484.03;;;19.32;26.76
10366;BME280;5229;41.820;23.490;2023-02-13T07:19:19;91478.66;;;19.49;26.57
10366;BME280;5229;41.820;23.490;2023-02-13T07:21:45;91479.53;;;19.73;26.03
10366;BME280;5229;41.820;23.490;2023-02-13T07:24:12;91481.66;;;19.59;26.11
10366;BME280;5229;41.820;23.490;2023-02-13T07:26:39;91472.50;;;19.45;26.02
10366;BME280;5229;41.820;23.490;2023-02-13T07:29:06;91479.88;;;19.31;25.95
10366;BME280;5229;41.820;23.490;2023-02-13T07:31:34;91478.50;;;19.45;25.72
10366;BME280;5229;41.820;23.490;2023-02-13T07:34:01;91476.91;;;19.53;25.50
10366;BME280;5229;41.820;23.490;2023-02-13T07:36:28;91475.56;;;19.47;25.58
10366;BME280;5229;41.820;23.490;2023-02-13T07:38:54;91474.03;;;19.25;25.34
10366;BME280;5229;41.820;23.490;2023-02-13T07:41:21;91474.31;;;18.95;25.50
10366;BME280;5229;41.820;23.490;2023-02-13T07:43:51;91474.00;;;18.59;25.77
10366;BME280;5229;41.820;23.490;2023-02-13T07:46:18;91473.13;;;18.46;25.78
10366;BME280;5229;41.820;23.490;2023-02-13T07:48:46;91469.75;;;18.29;25.73
10366;BME280;5229;41.820;23.490;2023-02-13T07:51:12;91479.06;;;18.09;25.80
10366;BME280;5229;41.820;23.490;2023-02-13T07:53:40;91488.06;;;17.66;25.96
10366;BME280;5229;41.820;23.490;2023-02-13T07:56:08;91477.03;;;17.12;26.62
10366;BME280;5229;41.820;23.490;2023-02-13T07:58:35;91478.38;;;16.45;27.23
10366;BME280;5229;41.820;23.490;2023-02-13T08:01:08;91477.06;;;15.60;27.94
10366;BME280;5229;41.820;23.490;2023-02-13T08:03:35;91478.00;;;14.79;28.65
10366;BME280;5229;41.820;23.490;2023-02-13T08:06:04;91477.34;;;14.33;29.03
10366;BME280;5229;41.820;23.490;2023-02-13T08:08:31;91472.47;;;14.13;29.04
10366;BME280;5229;41.820;23.490;2023-02-13T08:11:05;91471.66;;;14.44;29.34
10366;BME280;5229;41.820;23.490;2023-02-13T08:13:50;91477.06;;;14.75;28.42
10366;BME280;5229;41.820;23.490;2023-02-13T08:16:17;91477.78;;;15.03;28.46
10366;BME280;5229;41.820;23.490;2023-02-13T08:18:44;91474.81;;;14.82;28.07
10366;BME280;5229;41.820;23.490;2023-02-13T08:21:12;91471.28;;;14.64;28.20
10366;BME280;5229;41.820;23.490;2023-02-13T08:23:40;91473.75;;;14.83;28.05
10366;BME280;5229;41.820;23.490;2023-02-13T08:26:07;91478.16;;;15.10;28.30
10366;BME280;5229;41.820;23.490;2023-02-13T08:28:35;91479.72;;;14.97;28.04
10366;BME280;5229;41.820;23.490;2023-02-13T08:31:08;91488.84;;;14.59;28.35
10366;BME280;5229;41.820;23.490;2023-02-13T08:33:35;91479.78;;;14.29;28.47
10366;BME280;5229;41.820;23.490;2023-02-13T08:36:03;91471.66;;;13.99;28.86
10366;BME280;5229;41.820;23.490;2023-02-13T08:38:32;91481.94;;;13.77;29.42
10366;BME280;5229;41.820;23.490;2023-02-13T08:40:59;91476.88;;;13.67;29.66
10366;BME280;5229;41.820;23.490;2023-02-13T08:43:26;91474.88;;;13.96;29.05
10366;BME280;5229;41.820;23.490;2023-02-13T08:45:53;91474.88;;;14.09;28.83
10366;BME280;5229;41.820;23.490;2023-02-13T08:48:19;91473.13;;;14.50;28.40
10366;BME280;5229;41.820;23.490;2023-02-13T08:50:46;91464.25;;;15.01;27.89
10366;BME280;5229;41.820;23.490;2023-02-13T08:53:13;91469.69;;;15.40;27.46
10366;BME280;5229;41.820;23.490;2023-02-13T08:55:41;91467.03;;;15.53;27.30
10366;BME280;5229;41.820;23.490;2023-02-13T08:58:08;91463.47;;;15.71;27.57
10366;BME280;5229;41.820;23.490;2023-02-13T09:00:35;91467.06;;;16.36;26.78
10366;BME280;5229;41.820;23.490;2023-02-13T09:03:03;91463.16;;;17.03;26.22
10366;BME280;5229;41.820;23.490;2023-02-13T09:05:30;91467.03;;;17.40;26.02
10366;BME280;5229;41.820;23.490;2023-02-13T09:07:58;91465.22;;;17.49;25.59
10366;BME280;5229;41.820;23.490;2023-02-13T09:10:25;91455.47;;;17.67;25.49
10366;BME280;5229;41.820;23.490;2023-02-13T09:12:53;91459.44;;;18.15;25.06
10366;BME280;5229;41.820;23.490;2023-02-13T09:15:20;91450.34;;;18.96;24.31
10366;BME280;5229;41.820;23.490;2023-02-13T09:17:47;91449.78;;;19.93;23.07
10366;BME280;5229;41.820;23.490;2023-02-13T09:20:14;91452.97;;;20.64;22.38
10366;BME280;5229;41.820;23.490;2023-02-13T09:22:41;91451.38;;;20.96;22.26
10366;BME280;5229;41.820;23.490;2023-02-13T09:25:08;91450.09;;;21.53;21.98
10366;BME280;5229;41.820;23.490;2023-02-13T09:27:35;91457.69;;;22.22;21.45
10366;BME280;5229;41.820;23.490;2023-02-13T09:30:06;91446.69;;;22.78;20.63
10366;BME280;5229;41.820;23.490;2023-02-13T09:32:33;91456.09;;;23.23;20.31
10366;BME280;5229;41.820;23.490;2023-02-13T09:35:02;91460.63;;;23.57;20.08
10366;BME280;5229;41.820;23.490;2023-02-13T09:37:29;91460.69;;;24.14;19.56
10366;BME280;5229;41.820;23.490;2023-02-13T09:39:56;91467.31;;;24.84;19.63
10366;BME280;5229;41.820;23.490;2023-02-13T09:42:27;91454.31;;;25.46;18.71
10366;BME280;5229;41.820;23.490;2023-02-13T09:44:57;91450.25;;;25.82;18.24
10366;BME280;5229;41.820;23.490;2023-02-13T09:47:29;91449.75;;;25.99;17.62
10366;BME280;5229;41.820;23.490;2023-02-13T09:49:59;91442.38;;;26.19;17.60
10366;BME280;5229;41.820;23.490;2023-02-13T09:52:32;91441.91;;;26.43;17.14
10366;BME280;5229;41.820;23.490;2023-02-13T09:54:59;91437.56;;;26.61;17.57
10366;BME280;5229;41.820;23.490;2023-02-13T09:57:29;91430.75;;;26.67;17.30
10366;BME280;5229;41.820;23.490;2023-02-13T10:00:03;91433.16;;;26.79;16.81
10366;BME280;5229;41.820;23.490;2023-02-13T10:03:10;91433.84;;;27.12;16.71
10366;BME280;5229;41.820;23.490;2023-02-13T10:05:52;91432.25;;;27.51;16.56
10366;BME280;5229;41.820;23.490;2023-02-13T10:08:40;91425.88;;;27.70;16.39
10366;BME280;5229;41.820;23.490;2023-02-13T10:14:12;91417.13;;;27.69;16.24
10366;BME280;5229;41.820;23.490;2023-02-13T10:16:42;91407.56;;;27.65;16.07
10366;BME280;5229;41.820;23.490;2023-02-13T10:19:22;91407.59;;;27.68;15.90
10366;BME280;5229;41.820;23.490;2023-02-13T10:21:55;91401.16;;;27.80;15.89
10366;BME280;5229;41.820;23.490;2023-02-13T10:24:30;91399.38;;;28.01;15.59
10366;BME280;5229;41.820;23.490;2023-02-13T10:27:04;91392.97;;;28.17;15.69
10366;BME280;5229;41.820;23.490;2023-02-13T10:29:37;91392.94;;;28.09;15.39
10366;BME280;5229;41.820;23.490;2023-02-13T10:32:29;91386.03;;;27.98;15.41
10366;BME280;5229;41.820;23.490;2023-02-13T10:35:09;91388.34;;;28.06;15.39
10366;BME280;5229;41.820;23.490;2023-02-13T10:37:40;91378.50;;;28.25;15.42
10366;BME280;5229;41.820;23.490;2023-02-13T10:40:10;91374.78;;;28.50;14.82
10366;BME280;5229;41.820;23.490;2023-02-13T10:42:43;91379.00;;;28.62;14.88
10366;BME280;5229;41.820;23.490;2023-02-13T10:45:24;91364.88;;;28.68;14.39
10366;BME280;5229;41.820;23.490;2023-02-13T10:48:04;91368.72;;;28.74;14.83
10366;BME280;5229;41.820;23.490;2023-02-13T10:50:36;91370.25;;;28.86;14.99
10366;BME280;5229;41.820;23.490;2023-02-13T10:53:13;91364.91;;;28.72;14.23
10366;BME280;5229;41.820;23.490;2023-02-13T10:56:04;91366.34;;;28.38;14.42
10366;BME280;5229;41.820;23.490;2023-02-13T10:58:40;91354.88;;;27.41;14.78
10366;BME280;5229;41.820;23.490;2023-02-13T11:01:15;91353.09;;;25.88;15.27
10366;BME280;5229;41.820;23.490;2023-02-13T11:03:43;91350.06;;;24.33;16.28
10366;BME280;5229;41.820;23.490;2023-02-13T11:06:15;91336.75;;;22.97;17.18
10366;BME280;5229;41.820;23.490;2023-02-13T11:08:46;91336.81;;;21.76;17.73
10366;BME280;5229;41.820;23.490;2023-02-13T11:11:30;91329.50;;;20.54;17.84
10366;BME280;5229;41.820;23.490;2023-02-13T11:14:09;91330.97;;;19.50;18.53
10366;BME280;5229;41.820;23.490;2023-02-13T11:16:56;91330.88;;;18.56;19.33
10366;BME280;5229;41.820;23.490;2023-02-13T11:19:28;91325.16;;;17.88;20.00
10366;BME280;5229;41.820;23.490;2023-02-13T11:22:00;91316.19;;;17.34;20.95
10366;BME280;5229;41.820;23.490;2023-02-13T11:24:29;91311.28;;;16.90;21.59
10366;BME280;5229;41.820;23.490;2023-02-13T11:26:59;91305.88;;;16.52;21.56
10366;BME280;5229;41.820;23.490;2023-02-13T11:29:28;91304.38;;;16.12;22.73
10366;BME280;5229;41.820;23.490;2023-02-13T11:32:20;91303.59;;;15.64;22.96
10366;BME280;5229;41.820;23.490;2023-02-13T11:34:48;91298.88;;;15.22;23.79
10366;BME280;5229;41.820;23.490;2023-02-13T11:37:23;91301.81;;;14.77;24.62
10366;BME280;5229;41.820;23.490;2023-02-13T11:39:52;91283.09;;;14.39;25.13
10366;BME280;5229;41.820;23.490;2023-02-13T11:42:24;91284.75;;;14.08;25.35
10366;BME280;5229;41.820;23.490;2023-02-13T11:44:53;91282.28;;;13.76;25.56
10366;BME280;5229;41.820;23.490;2023-02-13T11:47:37;91270.41;;;13.43;25.60
10366;BME280;5229;41.820;23.490;2023-02-13T11:50:18;91257.84;;;13.18;27.07
10366;BME280;5229;41.820;23.490;2023-02-13T11:52:54;91272.72;;;12.99;26.72
10366;BME280;5229;41.820;23.490;2023-02-13T11:55:28;91261.66;;;12.75;27.02
10366;BME280;5229;41.820;23.490;2023-02-13T11:57:57;91254.75;;;12.52;27.13
10366;BME280;5229;41.820;23.490;2023-02-13T12:00:27;91261.03;;;12.32;27.28
10366;BME280;5229;41.820;23.490;2023-02-13T12:02:55;91255.25;;;12.17;27.50
10366;BME280;5229;41.820;23.490;2023-02-13T12:05:23;91251.81;;;12.03;28.32
10366;BME280;5229;41.820;23.490;2023-02-13T12:07:54;91241.81;;;11.91;28.32
10366;BME280;5229;41.820;23.490;2023-02-13T12:10:24;91243.00;;;11.80;27.56
10366;BME280;5229;41.820;23.490;2023-02-13T12:12:53;91235.06;;;11.71;28.17
10366;BME280;5229;41.820;23.490;2023-02-13T12:15:23;91236.47;;;11.64;28.30
10366;BME280;5229;41.820;23.490;2023-02-13T12:18:00;91238.09;;;11.55;28.99
10366;BME280;5229;41.820;23.490;2023-02-13T12:20:34;91230.22;;;11.41;28.41
10366;BME280;5229;41.820;23.490;2023-02-13T12:23:13;91235.53;;;11.31;28.94
10366;BME280;5229;41.820;23.490;2023-02-13T12:25:54;91227.41;;;11.14;29.12
10366;BME280;5229;41.820;23.490;2023-02-13T12:28:30;91220.84;;;10.98;28.96
10366;BME280;5229;41.820;23.490;2023-02-13T12:31:23;91216.94;;;10.72;29.07
10366;BME280;5229;41.820;23.490;2023-02-13T12:34:17;91227.44;;;10.57;29.41
10366;BME280;5229;41.820;23.490;2023-02-13T12:36:52;91217.16;;;10.47;29.35
10366;BME280;5229;41.820;23.490;2023-02-13T12:39:30;91216.22;;;10.38;29.45
10366;BME280;5229;41.820;23.490;2023-02-13T12:42:12;91210.06;;;10.29;29.19
10366;BME280;5229;41.820;23.490;2023-02-13T12:44:52;91204.72;;;10.16;30.00
10366;BME280;5229;41.820;23.490;2023-02-13T12:47:28;91197.25;;;10.04;30.23
10366;BME280;5229;41.820;23.490;2023-02-13T12:50:23;91207.22;;;9.92;30.37
10366;BME280;5229;41.820;23.490;2023-02-13T12:53:08;91201.31;;;9.82;30.76
10366;BME280;5229;41.820;23.490;2023-02-13T12:55:52;91187.72;;;9.61;30.79
10366;BME280;5229;41.820;23.490;2023-02-13T12:58:42;91198.13;;;9.51;30.89
10366;BME280;5229;41.820;23.490;2023-02-13T13:01:21;91194.03;;;9.40;31.44
10366;BME280;5229;41.820;23.490;2023-02-13T13:03:56;91191.72;;;9.34;31.48
10366;BME280;5229;41.820;23.490;2023-02-13T13:06:37;91180.34;;;9.30;31.69
10366;BME280;5229;41.820;23.490;2023-02-13T13:09:24;91180.41;;;9.20;32.07
10366;BME280;5229;41.820;23.490;2023-02-13T13:12:08;91188.72;;;9.12;32.12
10366;BME280;5229;41.820;23.490;2023-02-13T13:14:45;91181.75;;;9.07;32.32
10366;BME280;5229;41.820;23.490;2023-02-13T13:17:25;91179.19;;;9.02;32.60
10366;BME280;5229;41.820;23.490;2023-02-13T13:19:59;91175.06;;;8.96;32.68
10366;BME280;5229;41.820;23.490;2023-02-13T13:22:32;91177.16;;;8.94;32.51
10366;BME280;5229;41.820;23.490;2023-02-13T13:25:11;91168.66;;;8.88;33.16
10366;BME280;5229;41.820;23.490;2023-02-13T13:27:48;91170.97;;;8.85;32.49
10366;BME280;5229;41.820;23.490;2023-02-13T13:30:20;91162.72;;;8.78;32.53
10366;BME280;5229;41.820;23.490;2023-02-13T13:32:53;91163.25;;;8.70;33.47
10366;BME280;5229;41.820;23.490;2023-02-13T13:35:22;91161.22;;;8.57;33.88